createdAt,value
2018-09-26T00:01:52.242Z,32.14
2018-09-26T00:04:26.568Z,32.14
2018-09-26T00:06:55.747Z,32.69
2018-09-26T00:09:24.500Z,32.55
2018-09-26T00:11:53.424Z,32.79
2018-09-26T00:14:22.362Z,32.07
2018-09-26T00:16:51.216Z,32.73
2018-09-26T00:19:19.981Z,32.15
2018-09-26T00:21:48.815Z,32.29
2018-09-26T00:24:17.632Z,32.33
2018-09-26T00:26:46.405Z,32.69
2018-09-26T00:29:15.146Z,32.87
2018-09-26T00:31:44.069Z,32.18
2018-09-26T00:34:12.931Z,32.63
2018-09-26T00:36:41.689Z,32.25
2018-09-26T00:39:10.511Z,32.85
2018-09-26T00:41:39.311Z,32.75
2018-09-26T00:44:09.246Z,32.21
2018-09-26T00:46:38.091Z,32.82
2018-09-26T00:49:06.981Z,32.30
2018-09-26T00:51:35.751Z,32.83
2018-09-26T00:54:04.564Z,32.51
2018-09-26T00:56:33.331Z,32.85
2018-09-26T00:59:02.096Z,32.93
2018-09-26T01:01:30.989Z,32.35
2018-09-26T01:03:59.776Z,32.37
2018-09-26T01:06:28.618Z,32.38
2018-09-26T01:08:57.332Z,32.94
2018-09-26T01:11:26.111Z,32.41
2018-09-26T01:13:54.859Z,32.75
2018-09-26T01:16:23.760Z,33.01
2018-09-26T01:18:52.549Z,32.45
2018-09-26T01:21:21.315Z,33.06
2018-09-26T01:23:50.127Z,32.78
2018-09-26T01:26:18.900Z,32.53
2018-09-26T01:28:48.149Z,32.43
2018-09-26T01:31:16.919Z,32.52
2018-09-26T01:33:45.710Z,32.47
2018-09-26T01:36:14.532Z,32.85
2018-09-26T01:38:43.313Z,32.46
2018-09-26T01:41:12.235Z,33.07
2018-09-26T01:43:40.979Z,32.96
2018-09-26T01:46:09.740Z,33.06
2018-09-26T01:48:38.556Z,32.93
2018-09-26T01:51:07.412Z,32.42
2018-09-26T01:53:36.299Z,32.90
2018-09-26T01:56:05.183Z,32.43
2018-09-26T01:58:33.905Z,32.72
2018-09-26T02:01:02.661Z,32.51
2018-09-26T02:03:31.432Z,32.47
2018-09-26T02:06:00.228Z,33.06
2018-09-26T02:08:28.969Z,32.92
2018-09-26T02:10:57.712Z,33.05
2018-09-26T02:13:26.527Z,32.96
2018-09-26T02:15:55.264Z,33.10
2018-09-26T02:18:24.159Z,32.52
2018-09-26T02:20:53.004Z,32.49
2018-09-26T02:23:21.751Z,32.99
2018-09-26T02:25:50.517Z,33.05
2018-09-26T02:28:19.332Z,32.67
2018-09-26T02:30:48.216Z,32.53
2018-09-26T02:33:16.975Z,32.80
2018-09-26T02:35:45.775Z,32.48
2018-09-26T02:38:14.505Z,33.09
2018-09-26T02:40:43.324Z,33.09
2018-09-26T02:43:12.123Z,32.92
2018-09-26T02:45:40.851Z,32.54
2018-09-26T02:48:09.666Z,33.05
2018-09-26T02:50:38.414Z,32.44
2018-09-26T02:53:07.267Z,32.51
2018-09-26T02:55:36.009Z,33.14
2018-09-26T02:58:05.255Z,33.08
2018-09-26T03:00:34.013Z,32.87
2018-09-26T03:03:02.932Z,33.19
2018-09-26T03:05:31.661Z,33.16
2018-09-26T03:08:00.399Z,33.29
2018-09-26T03:10:29.154Z,33.37
2018-09-26T03:12:57.974Z,32.89
2018-09-26T03:15:26.779Z,33.32
2018-09-26T03:17:55.508Z,32.80
2018-09-26T03:20:24.315Z,33.10
2018-09-26T03:22:53.084Z,33.40
2018-09-26T03:25:21.861Z,32.93
2018-09-26T03:27:50.633Z,33.54
2018-09-26T03:30:19.445Z,33.27
2018-09-26T03:32:48.324Z,33.50
2018-09-26T03:35:17.024Z,33.13
2018-09-26T03:37:45.744Z,33.10
2018-09-26T03:40:14.488Z,33.09
2018-09-26T03:42:43.209Z,33.66
2018-09-26T03:45:11.987Z,33.25
2018-09-26T03:47:40.854Z,33.60
2018-09-26T03:50:09.661Z,33.75
2018-09-26T03:52:38.445Z,33.73
2018-09-26T03:55:07.464Z,33.66
2018-09-26T03:57:36.276Z,33.16
2018-09-26T04:00:05.287Z,33.25
2018-09-26T04:02:34.107Z,33.83
2018-09-26T04:05:03.058Z,33.16
2018-09-26T04:07:31.845Z,33.82
2018-09-26T04:10:00.827Z,33.35
2018-09-26T04:12:30.314Z,33.82
2018-09-26T04:14:59.097Z,33.88
2018-09-26T04:17:27.909Z,33.39
2018-09-26T04:19:56.854Z,33.24
2018-09-26T04:22:25.643Z,33.93
2018-09-26T04:24:54.381Z,33.73
2018-09-26T04:27:23.319Z,33.96
2018-09-26T04:29:52.077Z,33.94
2018-09-26T04:32:20.827Z,33.94
2018-09-26T04:34:49.620Z,33.45
2018-09-26T04:37:18.426Z,34.01
2018-09-26T04:39:47.219Z,33.94
2018-09-26T04:42:16.055Z,34.08
2018-09-26T04:44:44.781Z,33.79
2018-09-26T04:47:13.520Z,33.76
2018-09-26T04:49:42.393Z,34.01
2018-09-26T04:52:11.132Z,34.06
2018-09-26T04:54:39.903Z,33.52
2018-09-26T04:57:08.648Z,34.18
2018-09-26T04:59:37.463Z,33.88
2018-09-26T05:02:06.334Z,34.09
2018-09-26T05:04:35.092Z,34.16
2018-09-26T05:07:04.139Z,34.19
2018-09-26T05:09:32.905Z,34.20
2018-09-26T05:12:01.834Z,34.23
2018-09-26T05:14:30.630Z,33.68
2018-09-26T05:16:59.470Z,34.00
2018-09-26T05:19:28.304Z,33.78
2018-09-26T05:21:57.159Z,33.86
2018-09-26T05:24:26.041Z,34.32
2018-09-26T05:26:54.841Z,34.29
2018-09-26T05:29:23.691Z,33.81
2018-09-26T05:31:52.468Z,34.32
2018-09-26T05:34:21.230Z,34.35
2018-09-26T05:36:50.040Z,33.78
2018-09-26T05:39:18.858Z,34.01
2018-09-26T05:41:47.638Z,34.35
2018-09-26T05:44:16.468Z,33.95
2018-09-26T05:46:46.133Z,33.88
2018-09-26T05:49:14.916Z,34.46
2018-09-26T05:51:43.828Z,33.92
2018-09-26T05:54:12.650Z,33.99
2018-09-26T05:56:41.472Z,34.33
2018-09-26T05:59:10.332Z,34.03
2018-09-26T06:01:39.168Z,34.00
2018-09-26T06:04:07.988Z,33.97
2018-09-26T06:06:36.841Z,34.44
2018-09-26T06:09:09.680Z,34.04
2018-09-26T06:11:38.453Z,34.55
2018-09-26T06:14:07.499Z,34.08
2018-09-26T06:16:36.309Z,34.67
2018-09-26T06:19:05.291Z,34.63
2018-09-26T06:21:34.091Z,34.43
2018-09-26T06:24:02.997Z,34.68
2018-09-26T06:26:31.867Z,34.15
2018-09-26T06:29:00.724Z,34.31
2018-09-26T06:31:29.628Z,34.46
2018-09-26T06:33:58.385Z,34.96
2018-09-26T06:36:27.239Z,34.44
2018-09-26T06:38:56.044Z,34.95
2018-09-26T06:41:24.834Z,34.95
2018-09-26T06:43:53.616Z,35.02
2018-09-26T06:46:22.385Z,34.49
2018-09-26T06:48:51.409Z,35.04
2018-09-26T06:51:20.261Z,34.73
2018-09-26T06:53:49.111Z,35.45
2018-09-26T06:56:17.939Z,34.90
2018-09-26T06:58:46.754Z,35.00
2018-09-26T07:01:15.570Z,35.68
2018-09-26T07:03:44.371Z,35.73
2018-09-26T07:06:13.153Z,36.79
2018-09-26T07:08:41.935Z,37.11
2018-09-26T07:11:10.916Z,36.60
2018-09-26T07:13:39.729Z,36.72
2018-09-26T07:16:08.538Z,36.78
2018-09-26T07:18:37.298Z,37.25
2018-09-26T07:21:06.143Z,36.63
2018-09-26T07:23:34.911Z,36.54
2018-09-26T07:26:03.693Z,37.02
2018-09-26T07:28:32.554Z,36.46
2018-09-26T07:31:01.419Z,36.57
2018-09-26T07:33:30.281Z,36.60
2018-09-26T07:35:59.520Z,36.40
2018-09-26T07:38:28.383Z,36.19
2018-09-26T07:40:57.189Z,36.03
2018-09-26T07:43:26.038Z,36.54
2018-09-26T07:45:54.834Z,36.41
2018-09-26T07:48:23.679Z,35.94
2018-09-26T07:50:52.610Z,35.95
2018-09-26T07:53:21.539Z,35.83
2018-09-26T07:55:50.366Z,36.23
2018-09-26T07:58:19.119Z,35.77
2018-09-26T08:00:47.950Z,36.06
2018-09-26T08:03:16.780Z,36.12
2018-09-26T08:05:45.656Z,35.66
2018-09-26T08:08:14.537Z,35.63
2018-09-26T08:10:43.314Z,35.54
2018-09-26T08:13:12.166Z,36.12
2018-09-26T08:15:40.966Z,36.11
2018-09-26T08:18:09.892Z,35.54
2018-09-26T08:20:38.707Z,35.49
2018-09-26T08:23:07.766Z,36.13
2018-09-26T08:25:36.687Z,36.14
2018-09-26T08:28:05.594Z,35.50
2018-09-26T08:30:34.423Z,35.52
2018-09-26T08:33:03.176Z,35.73
2018-09-26T08:35:32.029Z,35.42
2018-09-26T08:38:00.872Z,35.96
2018-09-26T08:40:29.689Z,35.74
2018-09-26T08:42:58.509Z,35.46
2018-09-26T08:45:27.351Z,35.44
2018-09-26T08:47:56.177Z,35.27
2018-09-26T08:50:24.957Z,35.75
2018-09-26T08:52:53.768Z,35.44
2018-09-26T08:55:22.613Z,35.57
2018-09-26T08:57:51.418Z,35.82
2018-09-26T09:00:25.514Z,36.03
2018-09-26T09:02:54.308Z,35.73
2018-09-26T09:05:23.095Z,36.06
2018-09-26T09:07:51.882Z,35.61
2018-09-26T09:10:20.700Z,36.20
2018-09-26T09:12:49.467Z,35.35
2018-09-26T09:15:18.358Z,35.32
2018-09-26T09:17:48.040Z,35.93
2018-09-26T09:20:17.047Z,35.36
2018-09-26T09:22:46.418Z,35.99
2018-09-26T09:25:15.257Z,35.87
2018-09-26T09:27:44.100Z,35.95
2018-09-26T09:30:12.864Z,35.86
2018-09-26T09:32:41.568Z,35.60
2018-09-26T09:35:10.379Z,35.32
2018-09-26T09:37:39.206Z,35.32
2018-09-26T09:40:08.013Z,35.90
2018-09-26T09:42:36.822Z,35.37
2018-09-26T09:45:05.642Z,35.94
2018-09-26T09:47:34.407Z,35.99
2018-09-26T09:50:03.182Z,35.42
2018-09-26T09:52:31.920Z,35.39
2018-09-26T09:55:00.684Z,35.83
2018-09-26T09:57:30.244Z,35.90
2018-09-26T09:59:59.018Z,35.19
2018-09-26T10:02:27.901Z,35.84
2018-09-26T10:04:56.596Z,35.95
2018-09-26T10:07:25.362Z,35.67
2018-09-26T10:09:54.172Z,35.91
2018-09-26T10:12:22.883Z,35.83
2018-09-26T10:14:51.744Z,35.90
2018-09-26T10:17:20.581Z,35.84
2018-09-26T10:19:49.363Z,35.33
2018-09-26T10:22:18.148Z,35.33
2018-09-26T10:24:46.841Z,35.79
2018-09-26T10:27:15.559Z,35.50
2018-09-26T10:29:44.364Z,35.58
2018-09-26T10:32:13.205Z,35.84
2018-09-26T10:34:41.973Z,35.58
2018-09-26T10:37:10.682Z,35.88
2018-09-26T10:39:39.483Z,35.33
2018-09-26T10:42:08.369Z,35.35
2018-09-26T10:44:37.122Z,35.79
2018-09-26T10:47:05.867Z,35.32
2018-09-26T10:49:34.624Z,35.88
2018-09-26T10:52:03.629Z,35.44
2018-09-26T10:54:32.329Z,35.39
2018-09-26T10:57:01.177Z,35.94
2018-09-26T10:59:29.917Z,35.96
2018-09-26T11:01:58.746Z,35.40
2018-09-26T11:04:27.629Z,36.02
2018-09-26T11:06:56.408Z,35.50
2018-09-26T11:09:25.152Z,36.00
2018-09-26T11:11:53.878Z,35.54
2018-09-26T11:14:22.761Z,36.09
2018-09-26T11:16:51.589Z,36.13
2018-09-26T11:19:20.327Z,36.09
2018-09-26T11:21:49.118Z,35.89
2018-09-26T11:24:17.874Z,36.20
2018-09-26T11:26:46.604Z,36.13
2018-09-26T11:29:15.360Z,35.95
2018-09-26T11:31:44.088Z,36.26
2018-09-26T11:34:12.934Z,36.17
2018-09-26T11:36:41.948Z,36.19
2018-09-26T11:39:11.509Z,35.75
2018-09-26T11:41:40.397Z,36.24
2018-09-26T11:44:09.220Z,36.21
2018-09-26T11:46:38.115Z,35.82
2018-09-26T11:49:07.006Z,36.38
2018-09-26T11:51:35.820Z,36.20
2018-09-26T11:54:04.676Z,36.17
2018-09-26T11:56:33.512Z,36.13
2018-09-26T11:59:02.325Z,36.42
2018-09-26T12:01:31.125Z,36.09
2018-09-26T12:04:00.015Z,36.13
2018-09-26T12:06:28.827Z,35.67
2018-09-26T12:08:57.647Z,35.97
2018-09-26T12:11:26.418Z,36.48
2018-09-26T12:13:55.334Z,36.53
2018-09-26T12:16:24.286Z,36.55
2018-09-26T12:18:53.215Z,36.56
2018-09-26T12:21:30.443Z,36.68
2018-09-26T12:23:51.070Z,36.64
2018-09-26T12:26:19.902Z,36.05
2018-09-26T12:28:48.707Z,36.12
2018-09-26T12:31:17.495Z,36.29
2018-09-26T12:33:46.326Z,36.14
2018-09-26T12:36:15.204Z,36.26
2018-09-26T12:38:44.007Z,36.47
2018-09-26T12:41:12.775Z,36.75
2018-09-26T12:43:41.571Z,36.08
2018-09-26T12:46:10.365Z,36.61
2018-09-26T12:48:39.136Z,36.17
2018-09-26T12:51:07.957Z,36.13
2018-09-26T12:53:36.913Z,36.68
2018-09-26T12:56:05.745Z,36.16
2018-09-26T12:58:34.589Z,36.72
2018-09-26T13:01:03.702Z,36.31
2018-09-26T13:03:32.481Z,36.47
2018-09-26T13:06:01.305Z,36.74
2018-09-26T13:08:30.282Z,36.79
2018-09-26T13:10:59.121Z,36.51
2018-09-26T13:13:27.988Z,36.83
2018-09-26T13:15:56.755Z,36.21
2018-09-26T13:18:25.709Z,36.93
2018-09-26T13:20:54.480Z,36.97
2018-09-26T13:23:23.309Z,36.69
2018-09-26T13:25:52.106Z,36.88
2018-09-26T13:28:20.935Z,36.37
2018-09-26T13:30:49.814Z,36.71
2018-09-26T13:33:18.597Z,36.32
2018-09-26T13:35:47.445Z,36.72
2018-09-26T13:38:16.292Z,36.95
2018-09-26T13:40:45.068Z,37.04
2018-09-26T13:43:13.833Z,36.94
2018-09-26T13:45:42.689Z,36.96
2018-09-26T13:48:11.717Z,36.53
2018-09-26T13:50:40.495Z,37.10
2018-09-26T13:53:09.334Z,36.97
2018-09-26T13:55:38.122Z,37.16
2018-09-26T13:58:07.141Z,37.13
2018-09-26T14:00:36.016Z,36.70
2018-09-26T14:03:05.457Z,36.64
2018-09-26T14:05:34.336Z,37.21
2018-09-26T14:08:03.215Z,37.06
2018-09-26T14:10:32.042Z,36.66
2018-09-26T14:13:01.012Z,36.67
2018-09-26T14:15:29.861Z,36.74
2018-09-26T14:17:58.673Z,36.73
2018-09-26T14:20:27.525Z,36.89
2018-09-26T14:22:56.687Z,36.77
2018-09-26T14:25:25.465Z,37.21
2018-09-26T14:27:54.298Z,37.20
2018-09-26T14:30:23.238Z,36.86
2018-09-26T14:32:52.114Z,37.15
2018-09-26T14:35:20.967Z,36.90
2018-09-26T14:37:49.834Z,36.93
2018-09-26T14:40:18.795Z,36.85
2018-09-26T14:42:47.809Z,36.90
2018-09-26T14:45:16.625Z,37.47
2018-09-26T14:47:45.549Z,37.45
2018-09-26T14:50:14.470Z,37.47
2018-09-26T14:52:43.412Z,36.92
2018-09-26T14:55:12.431Z,37.08
2018-09-26T14:57:41.202Z,37.49
2018-09-26T15:00:10.339Z,37.13
2018-09-26T15:02:39.238Z,37.43
2018-09-26T15:05:08.097Z,37.58
2018-09-26T15:07:36.912Z,37.22
2018-09-26T15:10:05.932Z,37.65
2018-09-26T15:12:34.713Z,37.13
2018-09-26T15:15:04.477Z,37.60
2018-09-26T15:17:33.328Z,37.74
2018-09-26T15:20:02.178Z,36.92
2018-09-26T15:22:31.263Z,37.08
2018-09-26T15:25:00.101Z,37.46
2018-09-26T15:27:29.071Z,37.15
2018-09-26T15:29:57.912Z,37.69
2018-09-26T15:32:27.010Z,37.76
2018-09-26T15:34:55.956Z,37.31
2018-09-26T15:37:24.795Z,37.35
2018-09-26T15:39:53.561Z,37.92
2018-09-26T15:42:22.427Z,37.34
2018-09-26T15:44:51.286Z,37.95
2018-09-26T15:47:20.139Z,37.34
2018-09-26T15:49:48.972Z,37.99
2018-09-26T15:52:17.830Z,37.41
2018-09-26T15:54:46.667Z,38.07
2018-09-26T15:57:15.538Z,37.69
2018-09-26T15:59:44.400Z,37.38
2018-09-26T16:02:13.199Z,38.02
2018-09-26T16:04:42.004Z,37.48
2018-09-26T16:07:10.844Z,38.10
2018-09-26T16:09:39.686Z,37.78
2018-09-26T16:12:08.617Z,37.67
2018-09-26T16:14:37.538Z,38.17
2018-09-26T16:17:06.377Z,38.17
2018-09-26T16:19:35.138Z,37.72
2018-09-26T16:22:04.992Z,37.75
2018-09-26T16:24:33.751Z,37.64
2018-09-26T16:27:03.396Z,38.12
2018-09-26T16:29:32.262Z,38.42
2018-09-26T16:32:01.151Z,37.91
2018-09-26T16:34:29.991Z,37.77
2018-09-26T16:36:58.846Z,38.04
2018-09-26T16:39:27.936Z,38.20
2018-09-26T16:41:56.591Z,37.78
2018-09-26T16:44:25.553Z,37.82
2018-09-26T16:46:54.448Z,38.27
2018-09-26T16:49:23.374Z,38.31
2018-09-26T16:51:52.958Z,37.98
2018-09-26T16:54:21.913Z,38.35
2018-09-26T16:56:50.646Z,38.99
2018-09-26T16:59:19.452Z,38.89
2018-09-26T17:01:49.483Z,39.66
2018-09-26T17:04:18.399Z,40.96
2018-09-26T17:06:47.259Z,43.14
2018-09-26T17:09:16.097Z,44.78
2018-09-26T17:11:45.048Z,44.04
2018-09-26T17:14:14.055Z,43.59
2018-09-26T17:16:43.003Z,44.65
2018-09-26T17:19:12.192Z,44.41
2018-09-26T17:21:41.094Z,43.40
2018-09-26T17:24:10.043Z,44.23
2018-09-26T17:26:38.979Z,44.59
2018-09-26T17:29:07.854Z,44.93
2018-09-26T17:31:36.749Z,44.91
2018-09-26T17:34:05.895Z,44.96
2018-09-26T17:36:34.775Z,44.26
2018-09-26T17:39:04.641Z,44.79
2018-09-26T17:41:33.457Z,44.65
2018-09-26T17:44:02.272Z,44.33
2018-09-26T17:46:31.223Z,44.12
2018-09-26T17:49:00.079Z,43.59
2018-09-26T17:51:28.924Z,43.95
2018-09-26T17:53:57.893Z,43.79
2018-09-26T17:56:26.813Z,43.32
2018-09-26T17:58:55.839Z,43.13
2018-09-26T18:01:24.812Z,42.99
2018-09-26T18:03:53.623Z,42.80
2018-09-26T18:06:22.512Z,43.00
2018-09-26T18:08:51.423Z,43.49
2018-09-26T18:11:20.317Z,43.22
2018-09-26T18:13:49.141Z,43.30
2018-09-26T18:16:18.125Z,43.31
2018-09-26T18:18:47.176Z,43.43
2018-09-26T18:21:16.294Z,42.89
2018-09-26T18:23:45.475Z,42.78
2018-09-26T18:26:14.354Z,42.68
2018-09-26T18:28:43.363Z,42.90
2018-09-26T18:31:12.361Z,43.18
2018-09-26T18:33:41.369Z,42.96
2018-09-26T18:36:10.528Z,42.58
2018-09-26T18:38:39.370Z,42.49
2018-09-26T18:41:08.295Z,42.38
2018-09-26T18:43:37.258Z,42.68
2018-09-26T18:46:06.429Z,42.45
2018-09-26T18:48:35.455Z,42.59
2018-09-26T18:51:05.644Z,42.60
2018-09-26T18:53:34.470Z,42.81
2018-09-26T18:56:03.579Z,43.13
2018-09-26T18:58:33.586Z,42.84
2018-09-26T19:01:02.618Z,42.69
2018-09-26T19:03:31.593Z,42.69
2018-09-26T19:06:00.624Z,42.67
2018-09-26T19:08:29.480Z,42.90
2018-09-26T19:10:58.516Z,43.13
2018-09-26T19:13:27.461Z,42.88
2018-09-26T19:15:56.460Z,42.97
2018-09-26T19:18:25.342Z,42.96
2018-09-26T19:20:54.448Z,42.36
2018-09-26T19:23:23.359Z,42.59
2018-09-26T19:25:52.575Z,42.28
2018-09-26T19:28:21.490Z,42.40
2018-09-26T19:30:50.704Z,42.40
2018-09-26T19:33:19.782Z,42.36
2018-09-26T19:35:48.659Z,42.88
2018-09-26T19:38:17.646Z,42.43
2018-09-26T19:40:46.701Z,42.28
2018-09-26T19:43:15.833Z,42.24
2018-09-26T19:45:44.755Z,42.81
2018-09-26T19:48:13.698Z,42.39
2018-09-26T19:50:43.708Z,42.69
2018-09-26T19:53:12.689Z,42.69
2018-09-26T19:55:41.549Z,42.25
2018-09-26T19:58:10.490Z,42.56
2018-09-26T20:00:39.501Z,42.49
2018-09-26T20:03:08.379Z,41.99
2018-09-26T20:05:37.202Z,42.02
2018-09-26T20:08:06.335Z,42.74
2018-09-26T20:10:35.263Z,42.24
2018-09-26T20:13:04.270Z,42.40
2018-09-26T20:15:33.289Z,42.67
2018-09-26T20:18:02.164Z,42.42
2018-09-26T20:20:31.135Z,41.89
2018-09-26T20:23:00.164Z,42.40
2018-09-26T20:25:29.120Z,42.42
2018-09-26T20:27:58.136Z,42.39
2018-09-26T20:30:26.985Z,42.13
2018-09-26T20:32:56.875Z,42.91
2018-09-26T20:35:25.766Z,43.02
2018-09-26T20:37:54.730Z,42.67
2018-09-26T20:40:23.716Z,43.19
2018-09-26T20:42:52.605Z,43.23
2018-09-26T20:45:21.518Z,43.38
2018-09-26T20:47:50.379Z,43.37
2018-09-26T20:50:19.273Z,43.38
2018-09-26T20:52:48.194Z,43.43
2018-09-26T20:55:17.145Z,43.75
2018-09-26T20:57:45.976Z,44.20
2018-09-26T21:00:14.911Z,43.73
2018-09-26T21:02:43.877Z,44.27
2018-09-26T21:05:13.612Z,44.31
2018-09-26T21:07:42.496Z,44.46
2018-09-26T21:10:11.649Z,44.26
2018-09-26T21:12:40.543Z,43.97
2018-09-26T21:15:09.902Z,44.44
2018-09-26T21:17:38.730Z,43.89
2018-09-26T21:20:07.654Z,44.38
2018-09-26T21:22:36.490Z,44.28
2018-09-26T21:25:05.649Z,44.18
2018-09-26T21:27:34.442Z,43.47
2018-09-26T21:30:03.330Z,43.94
2018-09-26T21:32:32.132Z,43.15
2018-09-26T21:35:01.022Z,42.98
2018-09-26T21:37:29.819Z,43.27
2018-09-26T21:39:58.671Z,43.01
2018-09-26T21:42:27.439Z,43.19
2018-09-26T21:44:56.264Z,42.85
2018-09-26T21:47:25.095Z,42.65
2018-09-26T21:49:53.930Z,42.50
2018-09-26T21:52:22.731Z,42.92
2018-09-26T21:54:51.595Z,42.83
2018-09-26T21:57:20.410Z,42.29
2018-09-26T21:59:49.396Z,42.13
2018-09-26T22:02:18.260Z,42.16
2018-09-26T22:04:47.019Z,42.92
2018-09-26T22:07:15.873Z,42.80
2018-09-26T22:09:44.795Z,43.62
2018-09-26T22:12:13.575Z,42.64
2018-09-26T22:14:42.365Z,43.00
2018-09-26T22:17:11.182Z,42.88
2018-09-26T22:19:40.057Z,42.82
2018-09-26T22:22:08.909Z,42.15
2018-09-26T22:24:37.704Z,42.23
2018-09-26T22:27:06.163Z,42.23
2018-09-26T22:29:35.006Z,42.08
2018-09-26T22:32:04.153Z,42.15
2018-09-26T22:34:33.092Z,42.03
2018-09-26T22:37:01.989Z,41.30
2018-09-26T22:39:31.000Z,41.83
2018-09-26T22:41:59.876Z,41.86
2018-09-26T22:44:28.736Z,41.68
2018-09-26T22:46:57.730Z,41.28
2018-09-26T22:49:26.670Z,41.25
2018-09-26T22:51:55.463Z,41.64
2018-09-26T22:54:24.257Z,41.62
2018-09-26T22:56:53.112Z,40.99
2018-09-26T22:59:21.921Z,40.92
2018-09-26T23:01:50.780Z,41.49
2018-09-26T23:04:19.582Z,41.19
2018-09-26T23:06:48.436Z,40.93
2018-09-26T23:09:17.239Z,40.72
2018-09-26T23:11:46.147Z,40.78
2018-09-26T23:14:14.938Z,40.87
2018-09-26T23:16:43.736Z,40.91
2018-09-26T23:19:12.781Z,40.25
2018-09-26T23:21:41.551Z,40.35
2018-09-26T23:24:10.416Z,40.16
2018-09-26T23:26:39.209Z,40.07
2018-09-26T23:29:07.988Z,40.54
2018-09-26T23:31:36.784Z,39.94
2018-09-26T23:34:05.609Z,40.52
2018-09-26T23:36:34.441Z,40.38
2018-09-26T23:39:03.342Z,39.70
2018-09-26T23:41:32.108Z,40.20
2018-09-26T23:44:00.855Z,39.77
2018-09-26T23:46:29.755Z,39.65
2018-09-26T23:48:58.507Z,39.58
2018-09-26T23:51:27.312Z,39.58
2018-09-26T23:53:56.213Z,40.00
2018-09-26T23:56:24.949Z,39.45
2018-09-26T23:58:53.770Z,39.82
